sensor_id;sensor_type;location;lat;lon;timestamp;P1;durP1;ratioP1;P2;durP2;ratioP2
30998;SDS011;20549;50.042;8.968;2023-08-21T00:00:10;5.28;;;4.45;;
30998;SDS011;20549;50.042;8.968;2023-08-21T00:02:36;4.87;;;4.37;;
30998;SDS011;20549;50.042;8.968;2023-08-21T00:05:03;5.85;;;4.40;;
30998;SDS011;20549;50.042;8.968;2023-08-21T00:07:30;5.58;;;5.08;;
30998;SDS011;20549;50.042;8.968;2023-08-21T00:09:56;5.03;;;4.62;;
30998;SDS011;20549;50.042;8.968;2023-08-21T00:12:23;5.33;;;4.92;;
30998;SDS011;20549;50.042;8.968;2023-08-21T00:14:49;4.90;;;4.37;;
30998;SDS011;20549;50.042;8.968;2023-08-21T00:17:16;4.97;;;4.47;;
30998;SDS011;20549;50.042;8.968;2023-08-21T00:19:43;5.83;;;4.42;;
30998;SDS011;20549;50.042;8.968;2023-08-21T00:22:09;7.55;;;4.53;;
30998;SDS011;20549;50.042;8.968;2023-08-21T00:24:36;6.00;;;4.80;;
30998;SDS011;20549;50.042;8.968;2023-08-21T00:27:02;4.97;;;4.58;;
30998;SDS011;20549;50.042;8.968;2023-08-21T00:29:29;5.75;;;4.87;;
30998;SDS011;20549;50.042;8.968;2023-08-21T00:31:55;5.37;;;4.90;;
30998;SDS011;20549;50.042;8.968;2023-08-21T00:34:22;6.08;;;5.40;;
30998;SDS011;20549;50.042;8.968;2023-08-21T00:36:49;6.78;;;5.08;;
30998;SDS011;20549;50.042;8.968;2023-08-21T00:39:15;4.90;;;4.50;;
30998;SDS011;20549;50.042;8.968;2023-08-21T00:41:42;5.92;;;4.78;;
30998;SDS011;20549;50.042;8.968;2023-08-21T00:44:08;6.22;;;4.37;;
30998;SDS011;20549;50.042;8.968;2023-08-21T00:46:35;4.67;;;4.28;;
30998;SDS011;20549;50.042;8.968;2023-08-21T00:49:02;4.90;;;4.40;;
30998;SDS011;20549;50.042;8.968;2023-08-21T00:51:28;4.87;;;4.45;;
30998;SDS011;20549;50.042;8.968;2023-08-21T00:53:55;4.62;;;4.22;;
30998;SDS011;20549;50.042;8.968;2023-08-21T00:56:21;5.37;;;4.87;;
30998;SDS011;20549;50.042;8.968;2023-08-21T00:58:48;5.80;;;4.58;;
30998;SDS011;20549;50.042;8.968;2023-08-21T01:01:15;5.03;;;4.53;;
30998;SDS011;20549;50.042;8.968;2023-08-21T01:03:41;5.55;;;4.30;;
30998;SDS011;20549;50.042;8.968;2023-08-21T01:06:08;4.67;;;4.25;;
30998;SDS011;20549;50.042;8.968;2023-08-21T01:08:46;5.95;;;3.83;;
30998;SDS011;20549;50.042;8.968;2023-08-21T01:14:06;4.17;;;3.80;;
30998;SDS011;20549;50.042;8.968;2023-08-21T01:16:34;5.00;;;4.50;;
30998;SDS011;20549;50.042;8.968;2023-08-21T01:19:00;4.42;;;4.03;;
30998;SDS011;20549;50.042;8.968;2023-08-21T01:21:27;5.00;;;4.20;;
30998;SDS011;20549;50.042;8.968;2023-08-21T01:23:54;5.47;;;4.67;;
30998;SDS011;20549;50.042;8.968;2023-08-21T01:26:20;4.72;;;3.95;;
30998;SDS011;20549;50.042;8.968;2023-08-21T01:28:47;4.40;;;4.00;;
30998;SDS011;20549;50.042;8.968;2023-08-21T01:31:15;5.50;;;4.87;;
30998;SDS011;20549;50.042;8.968;2023-08-21T01:33:53;5.10;;;4.65;;
30998;SDS011;20549;50.042;8.968;2023-08-21T01:36:18;4.90;;;4.50;;
30998;SDS011;20549;50.042;8.968;2023-08-21T01:38:45;4.70;;;4.30;;
30998;SDS011;20549;50.042;8.968;2023-08-21T01:41:12;5.08;;;4.35;;
30998;SDS011;20549;50.042;8.968;2023-08-21T01:43:38;5.37;;;4.87;;
30998;SDS011;20549;50.042;8.968;2023-08-21T01:46:05;8.70;;;4.87;;
30998;SDS011;20549;50.042;8.968;2023-08-21T01:48:31;4.20;;;3.90;;
30998;SDS011;20549;50.042;8.968;2023-08-21T01:51:00;5.62;;;4.35;;
30998;SDS011;20549;50.042;8.968;2023-08-21T01:53:24;4.70;;;4.35;;
30998;SDS011;20549;50.042;8.968;2023-08-21T01:55:51;4.65;;;4.25;;
30998;SDS011;20549;50.042;8.968;2023-08-21T01:58:18;4.22;;;3.90;;
30998;SDS011;20549;50.042;8.968;2023-08-21T02:00:47;4.72;;;4.30;;
30998;SDS011;20549;50.042;8.968;2023-08-21T02:03:14;4.75;;;4.35;;
30998;SDS011;20549;50.042;8.968;2023-08-21T02:05:40;4.97;;;4.58;;
30998;SDS011;20549;50.042;8.968;2023-08-21T02:08:11;4.47;;;4.12;;
30998;SDS011;20549;50.042;8.968;2023-08-21T02:10:33;5.05;;;4.30;;
30998;SDS011;20549;50.042;8.968;2023-08-21T02:13:00;5.22;;;4.72;;
30998;SDS011;20549;50.042;8.968;2023-08-21T02:15:26;5.45;;;4.92;;
30998;SDS011;20549;50.042;8.968;2023-08-21T02:17:53;4.92;;;4.53;;
30998;SDS011;20549;50.042;8.968;2023-08-21T02:20:20;5.35;;;4.85;;
30998;SDS011;20549;50.042;8.968;2023-08-21T02:22:46;5.03;;;4.53;;
30998;SDS011;20549;50.042;8.968;2023-08-21T02:25:13;5.50;;;5.00;;
30998;SDS011;20549;50.042;8.968;2023-08-21T02:27:39;6.42;;;4.65;;
30998;SDS011;20549;50.042;8.968;2023-08-21T02:30:06;5.35;;;4.85;;
30998;SDS011;20549;50.042;8.968;2023-08-21T02:32:33;5.28;;;4.78;;
30998;SDS011;20549;50.042;8.968;2023-08-21T02:34:59;5.35;;;4.87;;
30998;SDS011;20549;50.042;8.968;2023-08-21T02:37:26;4.80;;;4.28;;
30998;SDS011;20549;50.042;8.968;2023-08-21T02:39:52;5.45;;;4.40;;
30998;SDS011;20549;50.042;8.968;2023-08-21T02:42:19;4.35;;;3.98;;
30998;SDS011;20549;50.042;8.968;2023-08-21T02:44:46;5.05;;;4.40;;
30998;SDS011;20549;50.042;8.968;2023-08-21T02:47:12;5.62;;;4.72;;
30998;SDS011;20549;50.042;8.968;2023-08-21T02:49:39;5.35;;;4.30;;
30998;SDS011;20549;50.042;8.968;2023-08-21T02:52:05;4.78;;;4.37;;
30998;SDS011;20549;50.042;8.968;2023-08-21T02:54:32;5.12;;;4.65;;
30998;SDS011;20549;50.042;8.968;2023-08-21T02:56:58;5.15;;;4.65;;
30998;SDS011;20549;50.042;8.968;2023-08-21T02:59:25;4.87;;;4.50;;
30998;SDS011;20549;50.042;8.968;2023-08-21T03:01:52;4.60;;;4.10;;
30998;SDS011;20549;50.042;8.968;2023-08-21T03:04:18;4.83;;;4.40;;
30998;SDS011;20549;50.042;8.968;2023-08-21T03:06:45;5.80;;;4.92;;
30998;SDS011;20549;50.042;8.968;2023-08-21T03:09:11;5.08;;;4.60;;
30998;SDS011;20549;50.042;8.968;2023-08-21T03:11:38;4.90;;;4.50;;
30998;SDS011;20549;50.042;8.968;2023-08-21T03:14:05;5.10;;;4.60;;
30998;SDS011;20549;50.042;8.968;2023-08-21T03:16:31;5.05;;;4.28;;
30998;SDS011;20549;50.042;8.968;2023-08-21T03:18:58;4.62;;;4.10;;
30998;SDS011;20549;50.042;8.968;2023-08-21T03:21:24;5.10;;;4.70;;
30998;SDS011;20549;50.042;8.968;2023-08-21T03:23:53;5.55;;;5.15;;
30998;SDS011;20549;50.042;8.968;2023-08-21T03:26:18;5.60;;;5.20;;
30998;SDS011;20549;50.042;8.968;2023-08-21T03:28:44;5.40;;;5.00;;
30998;SDS011;20549;50.042;8.968;2023-08-21T03:31:11;5.17;;;4.67;;
30998;SDS011;20549;50.042;8.968;2023-08-21T03:33:37;7.33;;;6.60;;
30998;SDS011;20549;50.042;8.968;2023-08-21T03:36:04;5.75;;;5.10;;
30998;SDS011;20549;50.042;8.968;2023-08-21T03:38:30;5.58;;;5.08;;
30998;SDS011;20549;50.042;8.968;2023-08-21T03:40:57;5.67;;;4.97;;
30998;SDS011;20549;50.042;8.968;2023-08-21T03:43:24;5.70;;;5.20;;
30998;SDS011;20549;50.042;8.968;2023-08-21T03:45:50;5.83;;;5.22;;
30998;SDS011;20549;50.042;8.968;2023-08-21T03:48:17;6.10;;;5.58;;
30998;SDS011;20549;50.042;8.968;2023-08-21T03:50:43;6.25;;;5.85;;
30998;SDS011;20549;50.042;8.968;2023-08-21T03:53:10;7.17;;;5.75;;
30998;SDS011;20549;50.042;8.968;2023-08-21T03:55:37;6.47;;;5.87;;
30998;SDS011;20549;50.042;8.968;2023-08-21T03:58:03;5.55;;;5.05;;
30998;SDS011;20549;50.042;8.968;2023-08-21T04:00:30;6.22;;;5.72;;
30998;SDS011;20549;50.042;8.968;2023-08-21T04:02:57;6.35;;;5.72;;
30998;SDS011;20549;50.042;8.968;2023-08-21T04:05:23;6.28;;;5.58;;
30998;SDS011;20549;50.042;8.968;2023-08-21T04:07:50;8.78;;;6.17;;
30998;SDS011;20549;50.042;8.968;2023-08-21T04:10:16;6.15;;;5.55;;
30998;SDS011;20549;50.042;8.968;2023-08-21T04:12:43;7.58;;;5.67;;
30998;SDS011;20549;50.042;8.968;2023-08-21T04:15:09;5.87;;;5.37;;
30998;SDS011;20549;50.042;8.968;2023-08-21T04:17:36;6.15;;;5.65;;
30998;SDS011;20549;50.042;8.968;2023-08-21T04:20:03;6.00;;;5.50;;
30998;SDS011;20549;50.042;8.968;2023-08-21T04:22:29;6.45;;;5.55;;
30998;SDS011;20549;50.042;8.968;2023-08-21T04:24:56;6.92;;;5.90;;
30998;SDS011;20549;50.042;8.968;2023-08-21T04:27:22;5.97;;;5.47;;
30998;SDS011;20549;50.042;8.968;2023-08-21T04:29:49;6.58;;;5.97;;
30998;SDS011;20549;50.042;8.968;2023-08-21T04:32:16;6.35;;;5.85;;
30998;SDS011;20549;50.042;8.968;2023-08-21T04:34:42;6.17;;;5.60;;
30998;SDS011;20549;50.042;8.968;2023-08-21T04:37:09;6.15;;;5.55;;
30998;SDS011;20549;50.042;8.968;2023-08-21T04:39:35;6.87;;;6.28;;
30998;SDS011;20549;50.042;8.968;2023-08-21T04:42:02;7.92;;;7.03;;
30998;SDS011;20549;50.042;8.968;2023-08-21T04:44:29;7.67;;;6.97;;
30998;SDS011;20549;50.042;8.968;2023-08-21T04:46:55;7.28;;;6.67;;
30998;SDS011;20549;50.042;8.968;2023-08-21T04:49:22;7.87;;;6.90;;
30998;SDS011;20549;50.042;8.968;2023-08-21T04:51:48;7.22;;;6.50;;
30998;SDS011;20549;50.042;8.968;2023-08-21T04:54:15;7.03;;;6.42;;
30998;SDS011;20549;50.042;8.968;2023-08-21T04:56:41;6.35;;;5.75;;
30998;SDS011;20549;50.042;8.968;2023-08-21T04:59:08;6.05;;;5.65;;
30998;SDS011;20549;50.042;8.968;2023-08-21T05:01:35;6.20;;;5.70;;
30998;SDS011;20549;50.042;8.968;2023-08-21T05:04:01;6.42;;;5.92;;
30998;SDS011;20549;50.042;8.968;2023-08-21T05:06:28;8.75;;;6.03;;
30998;SDS011;20549;50.042;8.968;2023-08-21T05:08:54;6.42;;;5.92;;
30998;SDS011;20549;50.042;8.968;2023-08-21T05:11:21;8.60;;;6.90;;
30998;SDS011;20549;50.042;8.968;2023-08-21T05:13:48;6.72;;;6.22;;
30998;SDS011;20549;50.042;8.968;2023-08-21T05:16:14;6.33;;;5.83;;
30998;SDS011;20549;50.042;8.968;2023-08-21T05:18:41;6.60;;;5.65;;
30998;SDS011;20549;50.042;8.968;2023-08-21T05:21:07;5.85;;;5.35;;
30998;SDS011;20549;50.042;8.968;2023-08-21T05:23:34;5.40;;;5.00;;
30998;SDS011;20549;50.042;8.968;2023-08-21T05:26:01;6.00;;;5.45;;
30998;SDS011;20549;50.042;8.968;2023-08-21T05:28:27;9.90;;;5.65;;
30998;SDS011;20549;50.042;8.968;2023-08-21T05:30:54;6.55;;;5.97;;
30998;SDS011;20549;50.042;8.968;2023-08-21T05:33:20;6.12;;;5.55;;
30998;SDS011;20549;50.042;8.968;2023-08-21T05:35:47;5.85;;;5.25;;
30998;SDS011;20549;50.042;8.968;2023-08-21T05:38:14;6.15;;;5.65;;
30998;SDS011;20549;50.042;8.968;2023-08-21T05:40:40;5.72;;;5.15;;
30998;SDS011;20549;50.042;8.968;2023-08-21T05:43:07;6.37;;;5.40;;
30998;SDS011;20549;50.042;8.968;2023-08-21T05:45:33;6.25;;;5.37;;
30998;SDS011;20549;50.042;8.968;2023-08-21T05:48:00;6.58;;;5.17;;
30998;SDS011;20549;50.042;8.968;2023-08-21T05:50:27;5.53;;;5.08;;
30998;SDS011;20549;50.042;8.968;2023-08-21T05:52:53;5.60;;;5.10;;
30998;SDS011;20549;50.042;8.968;2023-08-21T05:55:20;5.67;;;5.15;;
30998;SDS011;20549;50.042;8.968;2023-08-21T05:57:46;5.12;;;4.67;;
30998;SDS011;20549;50.042;8.968;2023-08-21T06:00:13;5.22;;;4.70;;
30998;SDS011;20549;50.042;8.968;2023-08-21T06:02:40;5.00;;;4.60;;
30998;SDS011;20549;50.042;8.968;2023-08-21T06:05:06;5.03;;;4.62;;
30998;SDS011;20549;50.042;8.968;2023-08-21T06:07:33;5.65;;;4.90;;
30998;SDS011;20549;50.042;8.968;2023-08-21T06:09:59;4.70;;;4.35;;
30998;SDS011;20549;50.042;8.968;2023-08-21T06:12:26;4.70;;;4.30;;
30998;SDS011;20549;50.042;8.968;2023-08-21T06:14:53;6.40;;;4.62;;
30998;SDS011;20549;50.042;8.968;2023-08-21T06:17:19;5.22;;;4.80;;
30998;SDS011;20549;50.042;8.968;2023-08-21T06:19:46;5.45;;;5.05;;
30998;SDS011;20549;50.042;8.968;2023-08-21T06:22:12;7.35;;;4.37;;
30998;SDS011;20549;50.042;8.968;2023-08-21T06:24:39;4.97;;;4.45;;
30998;SDS011;20549;50.042;8.968;2023-08-21T06:27:05;4.45;;;4.05;;
30998;SDS011;20549;50.042;8.968;2023-08-21T06:29:32;4.90;;;4.50;;
30998;SDS011;20549;50.042;8.968;2023-08-21T06:31:59;4.35;;;4.05;;
30998;SDS011;20549;50.042;8.968;2023-08-21T06:34:25;4.33;;;4.03;;
30998;SDS011;20549;50.042;8.968;2023-08-21T06:36:52;5.33;;;4.20;;
30998;SDS011;20549;50.042;8.968;2023-08-21T06:39:18;4.33;;;3.92;;
30998;SDS011;20549;50.042;8.968;2023-08-21T06:41:45;4.70;;;4.00;;
30998;SDS011;20549;50.042;8.968;2023-08-21T06:44:12;4.50;;;4.10;;
30998;SDS011;20549;50.042;8.968;2023-08-21T06:46:38;4.12;;;3.67;;
30998;SDS011;20549;50.042;8.968;2023-08-21T06:49:05;3.95;;;3.55;;
30998;SDS011;20549;50.042;8.968;2023-08-21T06:51:31;3.62;;;3.37;;
30998;SDS011;20549;50.042;8.968;2023-08-21T06:53:58;4.30;;;3.60;;
30998;SDS011;20549;50.042;8.968;2023-08-21T06:56:25;3.98;;;3.60;;
30998;SDS011;20549;50.042;8.968;2023-08-21T06:58:51;4.47;;;3.65;;
30998;SDS011;20549;50.042;8.968;2023-08-21T07:01:18;5.35;;;3.83;;
30998;SDS011;20549;50.042;8.968;2023-08-21T07:03:44;4.55;;;3.50;;
30998;SDS011;20549;50.042;8.968;2023-08-21T07:06:11;3.92;;;3.62;;
30998;SDS011;20549;50.042;8.968;2023-08-21T07:08:38;4.60;;;3.60;;
30998;SDS011;20549;50.042;8.968;2023-08-21T07:11:04;4.33;;;3.92;;
30998;SDS011;20549;50.042;8.968;2023-08-21T07:13:31;4.90;;;3.30;;
30998;SDS011;20549;50.042;8.968;2023-08-21T07:15:57;3.80;;;3.50;;
30998;SDS011;20549;50.042;8.968;2023-08-21T07:18:24;3.95;;;3.65;;
30998;SDS011;20549;50.042;8.968;2023-08-21T07:20:53;3.70;;;3.40;;
30998;SDS011;20549;50.042;8.968;2023-08-21T07:23:20;3.40;;;3.10;;
30998;SDS011;20549;50.042;8.968;2023-08-21T07:25:49;4.65;;;3.50;;
30998;SDS011;20549;50.042;8.968;2023-08-21T07:28:16;3.55;;;3.35;;
30998;SDS011;20549;50.042;8.968;2023-08-21T07:30:42;3.45;;;3.15;;
30998;SDS011;20549;50.042;8.968;2023-08-21T07:33:09;3.25;;;3.05;;
30998;SDS011;20549;50.042;8.968;2023-08-21T07:35:35;4.05;;;3.30;;
30998;SDS011;20549;50.042;8.968;2023-08-21T07:38:02;3.83;;;3.20;;
30998;SDS011;20549;50.042;8.968;2023-08-21T07:40:29;3.33;;;3.12;;
30998;SDS011;20549;50.042;8.968;2023-08-21T07:42:55;3.67;;;3.30;;
30998;SDS011;20549;50.042;8.968;2023-08-21T07:45:22;4.25;;;3.22;;
30998;SDS011;20549;50.042;8.968;2023-08-21T07:47:48;4.00;;;3.62;;
30998;SDS011;20549;50.042;8.968;2023-08-21T07:50:15;3.72;;;3.42;;
30998;SDS011;20549;50.042;8.968;2023-08-21T07:52:42;3.87;;;3.58;;
30998;SDS011;20549;50.042;8.968;2023-08-21T07:55:08;4.62;;;3.60;;
30998;SDS011;20549;50.042;8.968;2023-08-21T07:57:35;4.55;;;3.20;;
30998;SDS011;20549;50.042;8.968;2023-08-21T08:00:01;3.20;;;3.00;;
30998;SDS011;20549;50.042;8.968;2023-08-21T08:02:28;6.35;;;3.02;;
30998;SDS011;20549;50.042;8.968;2023-08-21T08:04:55;3.47;;;3.22;;
30998;SDS011;20549;50.042;8.968;2023-08-21T08:07:21;3.72;;;2.92;;
30998;SDS011;20549;50.042;8.968;2023-08-21T08:09:48;3.30;;;3.00;;
30998;SDS011;20549;50.042;8.968;2023-08-21T08:12:14;3.72;;;3.42;;
30998;SDS011;20549;50.042;8.968;2023-08-21T08:14:41;3.87;;;3.10;;
30998;SDS011;20549;50.042;8.968;2023-08-21T08:17:07;4.17;;;3.10;;
30998;SDS011;20549;50.042;8.968;2023-08-21T08:19:34;3.17;;;2.98;;
30998;SDS011;20549;50.042;8.968;2023-08-21T08:22:01;3.50;;;3.20;;
30998;SDS011;20549;50.042;8.968;2023-08-21T08:24:27;2.98;;;2.77;;
30998;SDS011;20549;50.042;8.968;2023-08-21T08:26:54;3.10;;;2.80;;
30998;SDS011;20549;50.042;8.968;2023-08-21T08:29:20;3.10;;;2.62;;
30998;SDS011;20549;50.042;8.968;2023-08-21T08:31:47;4.08;;;3.40;;
30998;SDS011;20549;50.042;8.968;2023-08-21T08:34:14;2.95;;;2.70;;
30998;SDS011;20549;50.042;8.968;2023-08-21T08:36:40;3.30;;;3.00;;
30998;SDS011;20549;50.042;8.968;2023-08-21T08:39:07;3.85;;;3.00;;
30998;SDS011;20549;50.042;8.968;2023-08-21T08:41:37;3.30;;;3.05;;
30998;SDS011;20549;50.042;8.968;2023-08-21T08:44:00;3.55;;;3.25;;
30998;SDS011;20549;50.042;8.968;2023-08-21T08:46:27;4.33;;;3.02;;
30998;SDS011;20549;50.042;8.968;2023-08-21T08:48:53;3.10;;;2.80;;
30998;SDS011;20549;50.042;8.968;2023-08-21T08:51:20;3.05;;;2.85;;
30998;SDS011;20549;50.042;8.968;2023-08-21T08:53:47;3.83;;;3.42;;
30998;SDS011;20549;50.042;8.968;2023-08-21T08:56:13;3.92;;;3.37;;
30998;SDS011;20549;50.042;8.968;2023-08-21T08:58:39;3.33;;;3.02;;
30998;SDS011;20549;50.042;8.968;2023-08-21T09:01:06;3.62;;;3.00;;
30998;SDS011;20549;50.042;8.968;2023-08-21T09:03:33;3.22;;;2.72;;
30998;SDS011;20549;50.042;8.968;2023-08-21T09:05:59;3.58;;;3.27;;
30998;SDS011;20549;50.042;8.968;2023-08-21T09:08:26;3.15;;;2.92;;
30998;SDS011;20549;50.042;8.968;2023-08-21T09:10:52;2.77;;;2.58;;
30998;SDS011;20549;50.042;8.968;2023-08-21T09:13:19;3.17;;;2.87;;
30998;SDS011;20549;50.042;8.968;2023-08-21T09:15:47;3.83;;;2.92;;
30998;SDS011;20549;50.042;8.968;2023-08-21T09:18:15;4.03;;;2.90;;
30998;SDS011;20549;50.042;8.968;2023-08-21T09:20:41;3.70;;;3.40;;
30998;SDS011;20549;50.042;8.968;2023-08-21T09:23:08;3.20;;;3.00;;
30998;SDS011;20549;50.042;8.968;2023-08-21T09:25:35;3.12;;;2.92;;
30998;SDS011;20549;50.042;8.968;2023-08-21T09:28:03;3.30;;;3.00;;
30998;SDS011;20549;50.042;8.968;2023-08-21T09:30:28;3.22;;;3.00;;
30998;SDS011;20549;50.042;8.968;2023-08-21T09:32:55;3.45;;;3.20;;
30998;SDS011;20549;50.042;8.968;2023-08-21T09:35:21;3.87;;;2.87;;
30998;SDS011;20549;50.042;8.968;2023-08-21T09:37:47;4.12;;;2.87;;
30998;SDS011;20549;50.042;8.968;2023-08-21T09:40:17;3.08;;;2.87;;
30998;SDS011;20549;50.042;8.968;2023-08-21T09:42:43;5.60;;;3.30;;
30998;SDS011;20549;50.042;8.968;2023-08-21T09:45:10;3.95;;;3.27;;
30998;SDS011;20549;50.042;8.968;2023-08-21T09:47:37;4.10;;;3.70;;
30998;SDS011;20549;50.042;8.968;2023-08-21T09:50:03;3.22;;;2.92;;
30998;SDS011;20549;50.042;8.968;2023-08-21T09:52:30;3.20;;;2.90;;
30998;SDS011;20549;50.042;8.968;2023-08-21T09:54:57;3.65;;;3.10;;
30998;SDS011;20549;50.042;8.968;2023-08-21T09:57:23;3.95;;;2.98;;
30998;SDS011;20549;50.042;8.968;2023-08-21T09:59:53;3.60;;;3.30;;
30998;SDS011;20549;50.042;8.968;2023-08-21T10:02:20;3.62;;;3.42;;
30998;SDS011;20549;50.042;8.968;2023-08-21T10:04:48;5.62;;;3.62;;
30998;SDS011;20549;50.042;8.968;2023-08-21T10:07:15;3.60;;;3.30;;
30998;SDS011;20549;50.042;8.968;2023-08-21T10:09:41;3.92;;;3.42;;
30998;SDS011;20549;50.042;8.968;2023-08-21T10:12:11;3.70;;;3.40;;
30998;SDS011;20549;50.042;8.968;2023-08-21T10:14:37;3.58;;;3.27;;
30998;SDS011;20549;50.042;8.968;2023-08-21T10:17:04;3.80;;;3.50;;
30998;SDS011;20549;50.042;8.968;2023-08-21T10:19:33;3.50;;;3.20;;
30998;SDS011;20549;50.042;8.968;2023-08-21T10:21:57;4.45;;;4.05;;
30998;SDS011;20549;50.042;8.968;2023-08-21T10:24:27;3.67;;;3.40;;
30998;SDS011;20549;50.042;8.968;2023-08-21T10:26:53;3.58;;;3.37;;
30998;SDS011;20549;50.042;8.968;2023-08-21T10:29:19;3.87;;;3.17;;
30998;SDS011;20549;50.042;8.968;2023-08-21T10:31:46;3.65;;;3.45;;
30998;SDS011;20549;50.042;8.968;2023-08-21T10:34:13;3.58;;;3.37;;
30998;SDS011;20549;50.042;8.968;2023-08-21T10:36:40;3.72;;;3.42;;
30998;SDS011;20549;50.042;8.968;2023-08-21T10:39:16;3.83;;;3.52;;
30998;SDS011;20549;50.042;8.968;2023-08-21T10:41:57;4.25;;;3.85;;
30998;SDS011;20549;50.042;8.968;2023-08-21T10:47:15;5.37;;;3.40;;
30998;SDS011;20549;50.042;8.968;2023-08-21T10:49:47;4.10;;;3.45;;
30998;SDS011;20549;50.042;8.968;2023-08-21T10:52:10;3.00;;;2.80;;
30998;SDS011;20549;50.042;8.968;2023-08-21T10:54:45;2.72;;;2.52;;
30998;SDS011;20549;50.042;8.968;2023-08-21T10:57:12;3.83;;;2.55;;
30998;SDS011;20549;50.042;8.968;2023-08-21T10:59:39;2.87;;;2.65;;
30998;SDS011;20549;50.042;8.968;2023-08-21T11:02:05;3.40;;;2.92;;
30998;SDS011;20549;50.042;8.968;2023-08-21T11:04:39;2.20;;;2.00;;
30998;SDS011;20549;50.042;8.968;2023-08-21T11:06:58;2.60;;;2.37;;
30998;SDS011;20549;50.042;8.968;2023-08-21T11:09:25;2.02;;;1.90;;
30998;SDS011;20549;50.042;8.968;2023-08-21T11:11:51;1.47;;;1.32;;
30998;SDS011;20549;50.042;8.968;2023-08-21T11:14:18;1.40;;;1.00;;
30998;SDS011;20549;50.042;8.968;2023-08-21T11:16:44;1.72;;;1.62;;
30998;SDS011;20549;50.042;8.968;2023-08-21T11:19:11;2.47;;;2.37;;
30998;SDS011;20549;50.042;8.968;2023-08-21T11:21:38;3.02;;;2.77;;
30998;SDS011;20549;50.042;8.968;2023-08-21T11:24:04;3.02;;;2.77;;
30998;SDS011;20549;50.042;8.968;2023-08-21T11:26:31;2.80;;;2.60;;
30998;SDS011;20549;50.042;8.968;2023-08-21T11:28:57;3.35;;;3.05;;
30998;SDS011;20549;50.042;8.968;2023-08-21T11:31:24;3.52;;;3.22;;
30998;SDS011;20549;50.042;8.968;2023-08-21T11:33:51;3.20;;;3.00;;
30998;SDS011;20549;50.042;8.968;2023-08-21T11:36:18;3.35;;;3.05;;
30998;SDS011;20549;50.042;8.968;2023-08-21T11:38:54;3.20;;;2.90;;
30998;SDS011;20549;50.042;8.968;2023-08-21T11:41:10;2.92;;;2.72;;
30998;SDS011;20549;50.042;8.968;2023-08-21T11:43:38;2.75;;;2.52;;
30998;SDS011;20549;50.042;8.968;2023-08-21T11:46:04;2.87;;;2.67;;
30998;SDS011;20549;50.042;8.968;2023-08-21T11:48:30;3.12;;;2.75;;
30998;SDS011;20549;50.042;8.968;2023-08-21T11:50:57;3.40;;;2.58;;
30998;SDS011;20549;50.042;8.968;2023-08-21T11:53:39;3.70;;;2.75;;
30998;SDS011;20549;50.042;8.968;2023-08-21T11:56:09;3.55;;;3.25;;
30998;SDS011;20549;50.042;8.968;2023-08-21T11:58:37;3.45;;;2.75;;
30998;SDS011;20549;50.042;8.968;2023-08-21T12:01:07;2.65;;;2.45;;
30998;SDS011;20549;50.042;8.968;2023-08-21T12:03:37;3.17;;;2.80;;
30998;SDS011;20549;50.042;8.968;2023-08-21T12:06:09;3.05;;;2.80;;
30998;SDS011;20549;50.042;8.968;2023-08-21T12:08:35;2.70;;;2.50;;
30998;SDS011;20549;50.042;8.968;2023-08-21T12:11:02;2.90;;;2.50;;
30998;SDS011;20549;50.042;8.968;2023-08-21T12:13:29;3.05;;;2.40;;
30998;SDS011;20549;50.042;8.968;2023-08-21T12:15:55;2.77;;;2.58;;
30998;SDS011;20549;50.042;8.968;2023-08-21T12:18:22;3.00;;;2.80;;
30998;SDS011;20549;50.042;8.968;2023-08-21T12:20:49;2.75;;;2.55;;
30998;SDS011;20549;50.042;8.968;2023-08-21T12:23:15;3.47;;;2.55;;
30998;SDS011;20549;50.042;8.968;2023-08-21T12:25:42;2.35;;;2.15;;
30998;SDS011;20549;50.042;8.968;2023-08-21T12:28:08;2.17;;;2.05;;
30998;SDS011;20549;50.042;8.968;2023-08-21T12:30:35;1.92;;;1.82;;
30998;SDS011;20549;50.042;8.968;2023-08-21T12:33:01;2.02;;;1.87;;
30998;SDS011;20549;50.042;8.968;2023-08-21T12:35:28;2.10;;;2.00;;
30998;SDS011;20549;50.042;8.968;2023-08-21T12:37:55;2.02;;;1.87;;
30998;SDS011;20549;50.042;8.968;2023-08-21T12:40:21;2.83;;;2.22;;
30998;SDS011;20549;50.042;8.968;2023-08-21T12:42:48;2.80;;;2.35;;
30998;SDS011;20549;50.042;8.968;2023-08-21T12:45:14;2.27;;;2.17;;
30998;SDS011;20549;50.042;8.968;2023-08-21T12:47:41;2.40;;;2.20;;
30998;SDS011;20549;50.042;8.968;2023-08-21T12:50:07;1.92;;;1.82;;
30998;SDS011;20549;50.042;8.968;2023-08-21T12:52:34;2.00;;;1.90;;
30998;SDS011;20549;50.042;8.968;2023-08-21T12:55:01;1.87;;;1.77;;
30998;SDS011;20549;50.042;8.968;2023-08-21T12:57:27;2.27;;;2.08;;
30998;SDS011;20549;50.042;8.968;2023-08-21T12:59:54;2.58;;;2.00;;
30998;SDS011;20549;50.042;8.968;2023-08-21T13:02:20;2.02;;;1.92;;
30998;SDS011;20549;50.042;8.968;2023-08-21T13:04:47;2.00;;;1.90;;
30998;SDS011;20549;50.042;8.968;2023-08-21T13:07:14;3.00;;;1.85;;
30998;SDS011;20549;50.042;8.968;2023-08-21T13:09:40;1.82;;;1.72;;
30998;SDS011;20549;50.042;8.968;2023-08-21T13:12:07;2.08;;;1.98;;
30998;SDS011;20549;50.042;8.968;2023-08-21T13:14:34;2.47;;;1.82;;
30998;SDS011;20549;50.042;8.968;2023-08-21T13:17:00;1.75;;;1.65;;
30998;SDS011;20549;50.042;8.968;2023-08-21T13:19:27;1.77;;;1.67;;
30998;SDS011;20549;50.042;8.968;2023-08-21T13:21:53;2.40;;;1.87;;
30998;SDS011;20549;50.042;8.968;2023-08-21T13:24:20;2.00;;;1.90;;
30998;SDS011;20549;50.042;8.968;2023-08-21T13:26:46;2.08;;;1.80;;
30998;SDS011;20549;50.042;8.968;2023-08-21T13:29:13;2.10;;;2.00;;
30998;SDS011;20549;50.042;8.968;2023-08-21T13:31:40;2.12;;;2.02;;
30998;SDS011;20549;50.042;8.968;2023-08-21T13:34:06;1.72;;;1.62;;
30998;SDS011;20549;50.042;8.968;2023-08-21T13:36:33;1.52;;;1.42;;
30998;SDS011;20549;50.042;8.968;2023-08-21T13:38:59;1.87;;;1.77;;
30998;SDS011;20549;50.042;8.968;2023-08-21T13:41:26;1.90;;;1.60;;
30998;SDS011;20549;50.042;8.968;2023-08-21T13:43:52;1.55;;;1.45;;
30998;SDS011;20549;50.042;8.968;2023-08-21T13:46:19;1.50;;;1.40;;
30998;SDS011;20549;50.042;8.968;2023-08-21T13:48:46;2.20;;;1.57;;
30998;SDS011;20549;50.042;8.968;2023-08-21T13:51:12;2.58;;;1.87;;
30998;SDS011;20549;50.042;8.968;2023-08-21T13:53:39;1.80;;;1.70;;
30998;SDS011;20549;50.042;8.968;2023-08-21T13:56:05;2.77;;;1.45;;
30998;SDS011;20549;50.042;8.968;2023-08-21T13:58:32;1.50;;;1.40;;
30998;SDS011;20549;50.042;8.968;2023-08-21T14:00:59;1.98;;;1.77;;
30998;SDS011;20549;50.042;8.968;2023-08-21T14:03:25;1.42;;;1.32;;
30998;SDS011;20549;50.042;8.968;2023-08-21T14:05:52;2.10;;;1.70;;
30998;SDS011;20549;50.042;8.968;2023-08-21T14:08:18;2.05;;;1.87;;
30998;SDS011;20549;50.042;8.968;2023-08-21T14:10:45;1.98;;;1.77;;
30998;SDS011;20549;50.042;8.968;2023-08-21T14:13:12;1.80;;;1.70;;
30998;SDS011;20549;50.042;8.968;2023-08-21T14:15:38;1.92;;;1.67;;
30998;SDS011;20549;50.042;8.968;2023-08-21T14:18:05;1.47;;;1.37;;
30998;SDS011;20549;50.042;8.968;2023-08-21T14:20:31;1.92;;;1.50;;
30998;SDS011;20549;50.042;8.968;2023-08-21T14:22:58;2.65;;;1.45;;
30998;SDS011;20549;50.042;8.968;2023-08-21T14:25:24;1.62;;;1.37;;
30998;SDS011;20549;50.042;8.968;2023-08-21T14:27:51;1.65;;;1.55;;
30998;SDS011;20549;50.042;8.968;2023-08-21T14:30:18;1.50;;;1.40;;
30998;SDS011;20549;50.042;8.968;2023-08-21T14:32:44;1.57;;;1.40;;
30998;SDS011;20549;50.042;8.968;2023-08-21T14:35:11;1.60;;;1.50;;
30998;SDS011;20549;50.042;8.968;2023-08-21T14:37:37;1.65;;;1.55;;
30998;SDS011;20549;50.042;8.968;2023-08-21T14:40:07;1.50;;;1.40;;
30998;SDS011;20549;50.042;8.968;2023-08-21T14:42:33;2.60;;;1.60;;
30998;SDS011;20549;50.042;8.968;2023-08-21T14:45:00;1.55;;;1.37;;
30998;SDS011;20549;50.042;8.968;2023-08-21T14:47:26;2.20;;;1.62;;
30998;SDS011;20549;50.042;8.968;2023-08-21T14:49:53;1.62;;;1.50;;